Aérodrome :
LOGIN :

S'inscrire | Disclaimer

   EN    FR    IT 

 










Légende :    VFR   VFR Marginal   IFR   IFR Intensif   IFR Très Intensif
Visi : 
Plafond : 
>= 8 km
>= 3000ft
5 à 8 km
1000 à 3000 ft
1500m à 5 km
500 à 1000 ft
800 à 1500m
200 à 500 ft
< 800m
< 200 ft
Symboles :   Orages  Brouillard  Fortes neiges  Fortes précipitations  Vent > 20 kt
SIGMETs :   Divers  Orages  Givrage  Turbulence  Onde Orograph.  Cendres Volcan.







- Altitude de l'aérodrome : 1568 ft


ETSB - Büchel AB

DERNIER METAR :
  • 232120Z AUTO 23013KT 1200 // ////// 05/05 Q1022 ///

METARs EXPIRÉS :
  • 232106Z 23013KT 1500 -DZRA BR OVC001 05/05 Q1022 RED FCST CANCEL
  • 232043Z 23015KT 2500 -DZRA BR OVC002 05/05 Q1021 AMB AMB BECMG RED
  • 232036Z 23015KT 3000 -DZRA BR OVC003 05/05 Q1021 YLO YLO TEMPO AMB
  • 232032Z 23016KT 4000 -DZRA BR OVC004 05/05 Q1022 YLO YLO TEMPO AMB
  • 232022Z 23014KT 7000 -DZRA BKN004 05/05 Q1021 YLO YLO TEMPO AMB
  • 231958Z 22015KT 9999 -DZRA BKN006 05/04 Q1021 YLO GRN BECMG YLO
  • 231920Z 23014KT 9999 BKN008 05/04 Q1021 GRN GRN BECMG YLO

TAF AMD TAF ETSB
Valide du 23 à 21h jusqu'au 24 à 03h UTC


232104Z 2321/2403 23010KT 3000 -DZRA BKN002
BECMG 2321/2123 21005KT 0500 FG BKN001 CANCEL 2105 BY ETGL
Pas de NOTAMs connus pour ce terrain.



MET'MAP, la Météo Aéronautique d'un coup d'oeil ! - Copyright ORBIFLY Décembre 2007 - Disclaimer

ORBIFLY MET'MAP TEAM :

Programmation & Développement : Alexandra Zaïnal
Conception & Développement : Baudouin d'Aumeries
Co-Programmation & Développement : Marc-Olivier Méhu
Soutien technique & logistique : Manuel Goepfert

Contact : metmap@orbifly.com




SOURCES & CREDITS :

   NOAA